sensor_id;sensor_type;location;lat;lon;timestamp;temperature;humidity
8676;DHT22;4375;52.486;13.424;2022-09-09T00:00:19;15.50;99.90
8676;DHT22;4375;52.486;13.424;2022-09-09T00:05:26;15.50;99.90
8676;DHT22;4375;52.486;13.424;2022-09-09T00:07:55;15.50;99.90
8676;DHT22;4375;52.486;13.424;2022-09-09T00:10:39;15.40;99.90
8676;DHT22;4375;52.486;13.424;2022-09-09T00:16:13;15.40;99.90
8676;DHT22;4375;52.486;13.424;2022-09-09T00:21:59;15.40;99.90
8676;DHT22;4375;52.486;13.424;2022-09-09T00:27:47;15.40;99.90
8676;DHT22;4375;52.486;13.424;2022-09-09T00:30:17;15.40;99.90
8676;DHT22;4375;52.486;13.424;2022-09-09T00:32:46;15.40;99.90
8676;DHT22;4375;52.486;13.424;2022-09-09T00:35:23;15.40;99.90
8676;DHT22;4375;52.486;13.424;2022-09-09T00:37:52;15.40;99.90
8676;DHT22;4375;52.486;13.424;2022-09-09T00:40:33;15.40;99.90
8676;DHT22;4375;52.486;13.424;2022-09-09T00:43:15;15.40;99.90
8676;DHT22;4375;52.486;13.424;2022-09-09T00:45:56;15.30;99.90
8676;DHT22;4375;52.486;13.424;2022-09-09T00:48:34;15.30;99.90
8676;DHT22;4375;52.486;13.424;2022-09-09T00:51:14;15.30;99.90
8676;DHT22;4375;52.486;13.424;2022-09-09T00:56:38;15.30;99.90
8676;DHT22;4375;52.486;13.424;2022-09-09T01:01:36;15.20;99.90
8676;DHT22;4375;52.486;13.424;2022-09-09T01:04:07;15.20;99.90
8676;DHT22;4375;52.486;13.424;2022-09-09T01:06:36;15.20;99.90
8676;DHT22;4375;52.486;13.424;2022-09-09T01:12:15;15.20;99.90
8676;DHT22;4375;52.486;13.424;2022-09-09T01:14:53;15.20;99.90
8676;DHT22;4375;52.486;13.424;2022-09-09T01:17:28;15.20;99.90
8676;DHT22;4375;52.486;13.424;2022-09-09T01:25:26;15.10;99.90
8676;DHT22;4375;52.486;13.424;2022-09-09T01:27:56;15.10;99.90
8676;DHT22;4375;52.486;13.424;2022-09-09T01:30:23;15.10;99.90
8676;DHT22;4375;52.486;13.424;2022-09-09T01:32:53;15.10;99.90
8676;DHT22;4375;52.486;13.424;2022-09-09T01:35:51;15.00;99.90
8676;DHT22;4375;52.486;13.424;2022-09-09T01:38:22;15.00;99.90
8676;DHT22;4375;52.486;13.424;2022-09-09T01:40:49;15.00;99.90
8676;DHT22;4375;52.486;13.424;2022-09-09T01:43:18;14.90;99.90
8676;DHT22;4375;52.486;13.424;2022-09-09T01:45:49;14.90;99.90
8676;DHT22;4375;52.486;13.424;2022-09-09T01:48:18;14.90;99.90
8676;DHT22;4375;52.486;13.424;2022-09-09T01:50:44;14.90;99.90
8676;DHT22;4375;52.486;13.424;2022-09-09T01:53:11;14.90;99.90
8676;DHT22;4375;52.486;13.424;2022-09-09T01:55:43;14.90;99.90
8676;DHT22;4375;52.486;13.424;2022-09-09T02:01:09;14.90;99.90
8676;DHT22;4375;52.486;13.424;2022-09-09T02:03:44;14.90;99.90
8676;DHT22;4375;52.486;13.424;2022-09-09T02:06:22;14.90;99.90
8676;DHT22;4375;52.486;13.424;2022-09-09T02:08:53;14.90;99.90
8676;DHT22;4375;52.486;13.424;2022-09-09T02:11:23;14.90;99.90
8676;DHT22;4375;52.486;13.424;2022-09-09T02:13:53;14.90;99.90
8676;DHT22;4375;52.486;13.424;2022-09-09T02:19:12;14.80;99.90
8676;DHT22;4375;52.486;13.424;2022-09-09T02:21:40;14.80;99.90
8676;DHT22;4375;52.486;13.424;2022-09-09T02:24:08;14.80;99.90
8676;DHT22;4375;52.486;13.424;2022-09-09T02:26:39;14.80;99.90
8676;DHT22;4375;52.486;13.424;2022-09-09T02:29:09;14.80;99.90
8676;DHT22;4375;52.486;13.424;2022-09-09T02:31:38;14.80;99.90
8676;DHT22;4375;52.486;13.424;2022-09-09T02:34:05;14.80;99.90
8676;DHT22;4375;52.486;13.424;2022-09-09T02:36:35;14.80;99.90
8676;DHT22;4375;52.486;13.424;2022-09-09T02:39:03;14.70;99.90
8676;DHT22;4375;52.486;13.424;2022-09-09T02:41:34;14.70;99.90
8676;DHT22;4375;52.486;13.424;2022-09-09T02:44:01;14.70;99.90
8676;DHT22;4375;52.486;13.424;2022-09-09T02:52:11;14.70;99.90
8676;DHT22;4375;52.486;13.424;2022-09-09T02:54:41;14.70;99.90
8676;DHT22;4375;52.486;13.424;2022-09-09T02:57:24;14.70;99.90
8676;DHT22;4375;52.486;13.424;2022-09-09T02:59:53;14.70;99.90
8676;DHT22;4375;52.486;13.424;2022-09-09T03:02:19;14.70;99.90
8676;DHT22;4375;52.486;13.424;2022-09-09T03:04:44;14.70;99.90
8676;DHT22;4375;52.486;13.424;2022-09-09T03:07:16;14.70;99.90
8676;DHT22;4375;52.486;13.424;2022-09-09T03:09:43;14.70;99.90
8676;DHT22;4375;52.486;13.424;2022-09-09T03:12:12;14.60;99.90
8676;DHT22;4375;52.486;13.424;2022-09-09T03:14:38;14.70;99.90
8676;DHT22;4375;52.486;13.424;2022-09-09T03:17:07;14.60;99.90
8676;DHT22;4375;52.486;13.424;2022-09-09T03:19:34;14.60;99.90
8676;DHT22;4375;52.486;13.424;2022-09-09T03:22:00;14.60;99.90
8676;DHT22;4375;52.486;13.424;2022-09-09T03:24:26;14.60;99.90
8676;DHT22;4375;52.486;13.424;2022-09-09T03:26:51;14.60;99.90
8676;DHT22;4375;52.486;13.424;2022-09-09T03:29:17;14.50;99.90
8676;DHT22;4375;52.486;13.424;2022-09-09T03:31:44;14.50;99.90
8676;DHT22;4375;52.486;13.424;2022-09-09T03:34:10;14.50;99.90
8676;DHT22;4375;52.486;13.424;2022-09-09T03:36:36;14.50;99.90
8676;DHT22;4375;52.486;13.424;2022-09-09T03:39:02;14.40;99.90
8676;DHT22;4375;52.486;13.424;2022-09-09T03:41:29;14.40;99.90
8676;DHT22;4375;52.486;13.424;2022-09-09T03:43:55;14.40;99.90
8676;DHT22;4375;52.486;13.424;2022-09-09T03:46:23;14.40;99.90
8676;DHT22;4375;52.486;13.424;2022-09-09T03:48:49;14.40;99.90
8676;DHT22;4375;52.486;13.424;2022-09-09T03:51:15;14.40;99.90
8676;DHT22;4375;52.486;13.424;2022-09-09T03:53:44;14.30;99.90
8676;DHT22;4375;52.486;13.424;2022-09-09T03:56:10;14.30;99.90
8676;DHT22;4375;52.486;13.424;2022-09-09T03:58:37;14.30;99.90
8676;DHT22;4375;52.486;13.424;2022-09-09T04:01:08;14.30;99.90
8676;DHT22;4375;52.486;13.424;2022-09-09T04:03:34;14.30;99.90
8676;DHT22;4375;52.486;13.424;2022-09-09T04:06:01;14.30;99.90
8676;DHT22;4375;52.486;13.424;2022-09-09T04:08:29;14.30;99.90
8676;DHT22;4375;52.486;13.424;2022-09-09T04:10:56;14.30;99.90
8676;DHT22;4375;52.486;13.424;2022-09-09T04:13:24;14.30;99.90
8676;DHT22;4375;52.486;13.424;2022-09-09T04:15:57;14.30;99.90
8676;DHT22;4375;52.486;13.424;2022-09-09T04:18:24;14.30;99.90
8676;DHT22;4375;52.486;13.424;2022-09-09T04:20:51;14.30;99.90
8676;DHT22;4375;52.486;13.424;2022-09-09T04:23:18;14.20;99.90
8676;DHT22;4375;52.486;13.424;2022-09-09T04:25:49;14.20;99.90
8676;DHT22;4375;52.486;13.424;2022-09-09T04:28:16;14.30;99.90
8676;DHT22;4375;52.486;13.424;2022-09-09T04:30:43;14.30;99.90
8676;DHT22;4375;52.486;13.424;2022-09-09T04:33:10;14.30;99.90
8676;DHT22;4375;52.486;13.424;2022-09-09T04:35:36;14.30;99.90
8676;DHT22;4375;52.486;13.424;2022-09-09T04:38:03;14.30;99.90
8676;DHT22;4375;52.486;13.424;2022-09-09T04:40:30;14.30;99.90
8676;DHT22;4375;52.486;13.424;2022-09-09T04:42:59;14.30;99.90
8676;DHT22;4375;52.486;13.424;2022-09-09T04:45:25;14.30;99.90
8676;DHT22;4375;52.486;13.424;2022-09-09T04:47:52;14.30;99.90
8676;DHT22;4375;52.486;13.424;2022-09-09T04:50:17;14.30;99.90
8676;DHT22;4375;52.486;13.424;2022-09-09T04:52:44;14.30;99.90
8676;DHT22;4375;52.486;13.424;2022-09-09T04:55:09;14.30;99.90
8676;DHT22;4375;52.486;13.424;2022-09-09T04:57:35;14.30;99.90
8676;DHT22;4375;52.486;13.424;2022-09-09T05:00:01;14.40;99.90
8676;DHT22;4375;52.486;13.424;2022-09-09T05:02:27;14.40;99.90
8676;DHT22;4375;52.486;13.424;2022-09-09T05:04:53;14.40;99.90
8676;DHT22;4375;52.486;13.424;2022-09-09T05:07:19;14.40;99.90
8676;DHT22;4375;52.486;13.424;2022-09-09T05:09:45;14.50;99.90
8676;DHT22;4375;52.486;13.424;2022-09-09T06:08:26;15.10;99.90
8676;DHT22;4375;52.486;13.424;2022-09-09T06:11:01;15.20;99.90
8676;DHT22;4375;52.486;13.424;2022-09-09T06:13:28;15.20;99.90
8676;DHT22;4375;52.486;13.424;2022-09-09T06:15:54;15.20;99.90
8676;DHT22;4375;52.486;13.424;2022-09-09T06:18:28;15.30;99.90
8676;DHT22;4375;52.486;13.424;2022-09-09T06:23:20;15.30;99.90
8676;DHT22;4375;52.486;13.424;2022-09-09T06:25:46;15.30;99.90
8676;DHT22;4375;52.486;13.424;2022-09-09T06:28:12;15.30;99.90
8676;DHT22;4375;52.486;13.424;2022-09-09T06:30:38;15.30;99.90
8676;DHT22;4375;52.486;13.424;2022-09-09T06:33:05;15.50;99.90
8676;DHT22;4375;52.486;13.424;2022-09-09T06:35:30;15.50;99.90
8676;DHT22;4375;52.486;13.424;2022-09-09T06:37:56;15.60;99.90
8676;DHT22;4375;52.486;13.424;2022-09-09T06:40:24;15.70;99.90
8676;DHT22;4375;52.486;13.424;2022-09-09T06:42:50;15.80;99.90
8676;DHT22;4375;52.486;13.424;2022-09-09T06:45:16;15.80;99.90
8676;DHT22;4375;52.486;13.424;2022-09-09T06:47:42;16.00;99.90
8676;DHT22;4375;52.486;13.424;2022-09-09T06:50:08;16.20;99.90
8676;DHT22;4375;52.486;13.424;2022-09-09T06:52:35;16.30;99.90
8676;DHT22;4375;52.486;13.424;2022-09-09T06:55:01;16.40;99.90
8676;DHT22;4375;52.486;13.424;2022-09-09T06:57:28;16.50;99.90
8676;DHT22;4375;52.486;13.424;2022-09-09T06:59:53;16.70;99.90
8676;DHT22;4375;52.486;13.424;2022-09-09T07:02:19;16.80;99.90
8676;DHT22;4375;52.486;13.424;2022-09-09T07:04:45;16.80;99.90
8676;DHT22;4375;52.486;13.424;2022-09-09T07:07:11;16.80;99.90
8676;DHT22;4375;52.486;13.424;2022-09-09T07:09:39;16.80;99.90
8676;DHT22;4375;52.486;13.424;2022-09-09T07:12:05;16.80;99.90
8676;DHT22;4375;52.486;13.424;2022-09-09T07:14:32;16.80;99.90
8676;DHT22;4375;52.486;13.424;2022-09-09T07:16:59;16.90;99.90
8676;DHT22;4375;52.486;13.424;2022-09-09T07:19:25;17.10;99.90
8676;DHT22;4375;52.486;13.424;2022-09-09T07:21:51;17.20;99.90
8676;DHT22;4375;52.486;13.424;2022-09-09T07:24:17;17.20;99.90
8676;DHT22;4375;52.486;13.424;2022-09-09T07:26:42;17.30;99.90
8676;DHT22;4375;52.486;13.424;2022-09-09T07:29:09;17.30;99.90
8676;DHT22;4375;52.486;13.424;2022-09-09T07:31:38;17.30;99.90
8676;DHT22;4375;52.486;13.424;2022-09-09T07:34:05;17.30;99.90
8676;DHT22;4375;52.486;13.424;2022-09-09T07:36:36;17.30;99.90
8676;DHT22;4375;52.486;13.424;2022-09-09T07:39:11;17.40;99.90
8676;DHT22;4375;52.486;13.424;2022-09-09T07:41:44;17.50;99.90
8676;DHT22;4375;52.486;13.424;2022-09-09T07:44:21;17.70;99.90
8676;DHT22;4375;52.486;13.424;2022-09-09T07:46:48;17.70;99.90
8676;DHT22;4375;52.486;13.424;2022-09-09T07:49:14;17.80;99.90
8676;DHT22;4375;52.486;13.424;2022-09-09T07:51:44;18.00;99.90
8676;DHT22;4375;52.486;13.424;2022-09-09T07:54:12;18.20;99.90
8676;DHT22;4375;52.486;13.424;2022-09-09T07:56:39;18.40;99.90
8676;DHT22;4375;52.486;13.424;2022-09-09T07:59:05;18.70;99.90
8676;DHT22;4375;52.486;13.424;2022-09-09T08:01:37;19.00;99.90
8676;DHT22;4375;52.486;13.424;2022-09-09T08:04:09;20.20;99.90
8676;DHT22;4375;52.486;13.424;2022-09-09T08:06:38;22.00;99.90
8676;DHT22;4375;52.486;13.424;2022-09-09T08:09:05;23.50;99.90
8676;DHT22;4375;52.486;13.424;2022-09-09T08:11:31;24.60;99.90
8676;DHT22;4375;52.486;13.424;2022-09-09T08:13:58;26.20;99.90
8676;DHT22;4375;52.486;13.424;2022-09-09T08:16:27;26.30;99.90
8676;DHT22;4375;52.486;13.424;2022-09-09T08:18:53;26.70;99.90
8676;DHT22;4375;52.486;13.424;2022-09-09T08:21:26;25.50;99.90
8676;DHT22;4375;52.486;13.424;2022-09-09T08:23:54;24.30;99.90
8676;DHT22;4375;52.486;13.424;2022-09-09T08:26:25;23.20;99.90
8676;DHT22;4375;52.486;13.424;2022-09-09T08:28:54;22.30;99.90
8676;DHT22;4375;52.486;13.424;2022-09-09T08:31:30;21.90;99.90
8676;DHT22;4375;52.486;13.424;2022-09-09T08:33:57;21.40;99.90
8676;DHT22;4375;52.486;13.424;2022-09-09T08:36:26;21.20;99.90
8676;DHT22;4375;52.486;13.424;2022-09-09T08:38:55;20.90;99.90
8676;DHT22;4375;52.486;13.424;2022-09-09T08:44:10;20.80;99.90
8676;DHT22;4375;52.486;13.424;2022-09-09T08:51:40;20.30;99.90
8676;DHT22;4375;52.486;13.424;2022-09-09T08:54:08;19.90;99.90
8676;DHT22;4375;52.486;13.424;2022-09-09T08:56:36;19.70;99.90
8676;DHT22;4375;52.486;13.424;2022-09-09T08:59:03;19.80;99.90
8676;DHT22;4375;52.486;13.424;2022-09-09T09:01:49;19.90;99.90
8676;DHT22;4375;52.486;13.424;2022-09-09T09:04:55;19.90;99.90
8676;DHT22;4375;52.486;13.424;2022-09-09T09:12:43;21.20;99.90
8676;DHT22;4375;52.486;13.424;2022-09-09T09:15:42;21.60;99.90
8676;DHT22;4375;52.486;13.424;2022-09-09T09:18:12;22.20;99.90
8676;DHT22;4375;52.486;13.424;2022-09-09T09:20:41;22.20;99.90
8676;DHT22;4375;52.486;13.424;2022-09-09T09:23:22;21.90;99.90
8676;DHT22;4375;52.486;13.424;2022-09-09T09:25:48;21.90;99.90
8676;DHT22;4375;52.486;13.424;2022-09-09T09:28:23;22.00;99.90
8676;DHT22;4375;52.486;13.424;2022-09-09T09:31:10;21.80;99.90
8676;DHT22;4375;52.486;13.424;2022-09-09T09:36:08;22.10;99.90
8676;DHT22;4375;52.486;13.424;2022-09-09T09:38:35;21.70;99.90
8676;DHT22;4375;52.486;13.424;2022-09-09T09:41:02;21.60;99.90
8676;DHT22;4375;52.486;13.424;2022-09-09T09:43:35;21.50;99.90
8676;DHT22;4375;52.486;13.424;2022-09-09T09:46:04;21.50;99.90
8676;DHT22;4375;52.486;13.424;2022-09-09T09:48:30;21.60;99.90
8676;DHT22;4375;52.486;13.424;2022-09-09T09:51:09;21.30;99.90
8676;DHT22;4375;52.486;13.424;2022-09-09T09:53:37;21.20;99.90
8676;DHT22;4375;52.486;13.424;2022-09-09T09:56:07;21.30;99.90
8676;DHT22;4375;52.486;13.424;2022-09-09T09:58:53;21.30;99.90
8676;DHT22;4375;52.486;13.424;2022-09-09T10:01:26;21.40;99.90
8676;DHT22;4375;52.486;13.424;2022-09-09T10:03:55;21.40;99.90
8676;DHT22;4375;52.486;13.424;2022-09-09T10:06:32;21.40;99.90
8676;DHT22;4375;52.486;13.424;2022-09-09T10:08:59;21.50;99.90
8676;DHT22;4375;52.486;13.424;2022-09-09T10:14:22;21.30;99.90
8676;DHT22;4375;52.486;13.424;2022-09-09T10:19:32;21.40;99.90
8676;DHT22;4375;52.486;13.424;2022-09-09T10:30:16;21.90;99.90
8676;DHT22;4375;52.486;13.424;2022-09-09T10:33:04;21.70;99.90
8676;DHT22;4375;52.486;13.424;2022-09-09T10:35:51;21.70;99.90
8676;DHT22;4375;52.486;13.424;2022-09-09T10:38:41;21.50;99.90
8676;DHT22;4375;52.486;13.424;2022-09-09T10:49:28;22.00;99.90
8676;DHT22;4375;52.486;13.424;2022-09-09T10:57:40;21.90;99.90
8676;DHT22;4375;52.486;13.424;2022-09-09T11:03:42;22.00;99.90
8676;DHT22;4375;52.486;13.424;2022-09-09T11:06:19;22.10;99.90
8676;DHT22;4375;52.486;13.424;2022-09-09T11:09:17;22.10;99.90
8676;DHT22;4375;52.486;13.424;2022-09-09T11:11:54;22.00;99.90
8676;DHT22;4375;52.486;13.424;2022-09-09T11:17:08;21.90;99.90
8676;DHT22;4375;52.486;13.424;2022-09-09T11:19:38;21.90;99.90
8676;DHT22;4375;52.486;13.424;2022-09-09T11:22:26;21.90;99.90
8676;DHT22;4375;52.486;13.424;2022-09-09T11:24:56;21.60;99.90
8676;DHT22;4375;52.486;13.424;2022-09-09T11:27:41;21.70;99.90
8676;DHT22;4375;52.486;13.424;2022-09-09T11:30:42;21.70;99.90
8676;DHT22;4375;52.486;13.424;2022-09-09T11:33:23;21.90;99.90
8676;DHT22;4375;52.486;13.424;2022-09-09T11:38:46;22.20;99.90
8676;DHT22;4375;52.486;13.424;2022-09-09T11:41:13;22.40;99.90
8676;DHT22;4375;52.486;13.424;2022-09-09T11:43:52;22.60;99.90
8676;DHT22;4375;52.486;13.424;2022-09-09T11:46:32;22.80;99.90
8676;DHT22;4375;52.486;13.424;2022-09-09T11:49:03;22.60;99.90
8676;DHT22;4375;52.486;13.424;2022-09-09T11:51:31;22.60;99.90
8676;DHT22;4375;52.486;13.424;2022-09-09T11:53:59;22.40;99.90
8676;DHT22;4375;52.486;13.424;2022-09-09T11:56:41;22.30;99.90
8676;DHT22;4375;52.486;13.424;2022-09-09T12:02:02;22.50;99.90
8676;DHT22;4375;52.486;13.424;2022-09-09T12:04:35;22.30;99.90
8676;DHT22;4375;52.486;13.424;2022-09-09T12:07:28;22.30;99.90
8676;DHT22;4375;52.486;13.424;2022-09-09T12:09:56;22.40;99.90
8676;DHT22;4375;52.486;13.424;2022-09-09T12:12:36;22.50;99.90
8676;DHT22;4375;52.486;13.424;2022-09-09T12:17:43;22.50;99.90
8676;DHT22;4375;52.486;13.424;2022-09-09T12:28:19;22.10;99.90
8676;DHT22;4375;52.486;13.424;2022-09-09T12:33:37;22.00;99.90
8676;DHT22;4375;52.486;13.424;2022-09-09T12:36:29;21.90;99.90
8676;DHT22;4375;52.486;13.424;2022-09-09T12:38:58;22.00;99.90
8676;DHT22;4375;52.486;13.424;2022-09-09T12:41:27;22.00;99.90
8676;DHT22;4375;52.486;13.424;2022-09-09T12:44:13;22.10;99.90
8676;DHT22;4375;52.486;13.424;2022-09-09T12:46:44;22.20;99.90
8676;DHT22;4375;52.486;13.424;2022-09-09T12:49:33;22.30;99.90
8676;DHT22;4375;52.486;13.424;2022-09-09T12:52:23;22.30;99.90
8676;DHT22;4375;52.486;13.424;2022-09-09T12:54:52;22.40;99.90
8676;DHT22;4375;52.486;13.424;2022-09-09T12:57:19;22.40;99.90
8676;DHT22;4375;52.486;13.424;2022-09-09T12:59:47;22.60;99.90
8676;DHT22;4375;52.486;13.424;2022-09-09T13:02:26;22.60;99.90
8676;DHT22;4375;52.486;13.424;2022-09-09T13:04:52;22.60;99.90
8676;DHT22;4375;52.486;13.424;2022-09-09T13:07:20;22.60;99.90
8676;DHT22;4375;52.486;13.424;2022-09-09T13:09:48;22.70;99.90
8676;DHT22;4375;52.486;13.424;2022-09-09T13:12:22;22.80;99.90
8676;DHT22;4375;52.486;13.424;2022-09-09T13:14:50;22.80;99.90
8676;DHT22;4375;52.486;13.424;2022-09-09T13:17:22;22.80;99.90
8676;DHT22;4375;52.486;13.424;2022-09-09T13:19:49;22.70;99.90
8676;DHT22;4375;52.486;13.424;2022-09-09T13:22:37;22.70;99.90
8676;DHT22;4375;52.486;13.424;2022-09-09T13:27:41;22.80;99.90
8676;DHT22;4375;52.486;13.424;2022-09-09T13:30:39;22.90;99.90
8676;DHT22;4375;52.486;13.424;2022-09-09T13:35:35;22.90;99.90
8676;DHT22;4375;52.486;13.424;2022-09-09T13:38:14;22.90;99.90
8676;DHT22;4375;52.486;13.424;2022-09-09T13:40:40;23.00;99.90
8676;DHT22;4375;52.486;13.424;2022-09-09T13:43:17;22.80;99.90
8676;DHT22;4375;52.486;13.424;2022-09-09T13:45:56;22.80;99.90
8676;DHT22;4375;52.486;13.424;2022-09-09T13:48:23;22.80;99.90
8676;DHT22;4375;52.486;13.424;2022-09-09T13:51:05;22.90;99.90
8676;DHT22;4375;52.486;13.424;2022-09-09T13:53:31;22.90;99.90
8676;DHT22;4375;52.486;13.424;2022-09-09T13:55:57;23.00;99.90
8676;DHT22;4375;52.486;13.424;2022-09-09T13:58:23;22.90;99.90
8676;DHT22;4375;52.486;13.424;2022-09-09T14:00:51;23.00;99.90
8676;DHT22;4375;52.486;13.424;2022-09-09T14:03:17;23.00;99.90
8676;DHT22;4375;52.486;13.424;2022-09-09T14:05:44;23.10;99.90
8676;DHT22;4375;52.486;13.424;2022-09-09T14:08:24;23.10;99.90
8676;DHT22;4375;52.486;13.424;2022-09-09T14:10:51;23.00;99.90
8676;DHT22;4375;52.486;13.424;2022-09-09T14:13:17;22.70;99.90
8676;DHT22;4375;52.486;13.424;2022-09-09T14:15:43;22.60;99.90
8676;DHT22;4375;52.486;13.424;2022-09-09T14:18:12;22.60;99.90
8676;DHT22;4375;52.486;13.424;2022-09-09T14:20:38;22.70;99.90
8676;DHT22;4375;52.486;13.424;2022-09-09T14:23:04;22.90;99.90
8676;DHT22;4375;52.486;13.424;2022-09-09T14:25:30;23.00;99.90
8676;DHT22;4375;52.486;13.424;2022-09-09T14:27:56;23.10;99.90
8676;DHT22;4375;52.486;13.424;2022-09-09T14:30:25;23.20;99.90
8676;DHT22;4375;52.486;13.424;2022-09-09T14:32:50;23.10;99.90
8676;DHT22;4375;52.486;13.424;2022-09-09T14:35:16;23.10;99.90
8676;DHT22;4375;52.486;13.424;2022-09-09T14:37:43;23.10;99.90
8676;DHT22;4375;52.486;13.424;2022-09-09T14:40:10;23.10;99.90
8676;DHT22;4375;52.486;13.424;2022-09-09T14:42:36;23.10;99.90
8676;DHT22;4375;52.486;13.424;2022-09-09T14:45:02;22.90;99.90
8676;DHT22;4375;52.486;13.424;2022-09-09T14:47:28;22.80;99.90
8676;DHT22;4375;52.486;13.424;2022-09-09T14:49:54;22.60;99.90
8676;DHT22;4375;52.486;13.424;2022-09-09T14:52:20;22.60;99.90
8676;DHT22;4375;52.486;13.424;2022-09-09T14:54:46;22.40;99.90
8676;DHT22;4375;52.486;13.424;2022-09-09T14:57:12;22.20;99.90
8676;DHT22;4375;52.486;13.424;2022-09-09T14:59:37;22.20;99.90
8676;DHT22;4375;52.486;13.424;2022-09-09T15:02:03;22.10;99.90
8676;DHT22;4375;52.486;13.424;2022-09-09T15:04:29;22.10;99.90
8676;DHT22;4375;52.486;13.424;2022-09-09T15:06:55;22.10;99.90
8676;DHT22;4375;52.486;13.424;2022-09-09T15:09:20;22.10;99.90
8676;DHT22;4375;52.486;13.424;2022-09-09T15:11:46;22.20;99.90
8676;DHT22;4375;52.486;13.424;2022-09-09T15:14:12;22.20;99.90
8676;DHT22;4375;52.486;13.424;2022-09-09T15:16:38;22.20;99.90
8676;DHT22;4375;52.486;13.424;2022-09-09T15:19:05;22.20;99.90
8676;DHT22;4375;52.486;13.424;2022-09-09T15:21:33;22.20;99.90
8676;DHT22;4375;52.486;13.424;2022-09-09T15:24:00;22.20;99.90
8676;DHT22;4375;52.486;13.424;2022-09-09T15:26:26;22.30;99.90
8676;DHT22;4375;52.486;13.424;2022-09-09T15:28:53;22.30;99.90
8676;DHT22;4375;52.486;13.424;2022-09-09T15:31:28;22.30;99.90
8676;DHT22;4375;52.486;13.424;2022-09-09T15:33:57;22.30;99.90
8676;DHT22;4375;52.486;13.424;2022-09-09T15:38:58;22.40;99.90
8676;DHT22;4375;52.486;13.424;2022-09-09T15:41:24;22.20;99.90
8676;DHT22;4375;52.486;13.424;2022-09-09T15:43:52;22.10;99.90
8676;DHT22;4375;52.486;13.424;2022-09-09T15:46:21;22.00;99.90
8676;DHT22;4375;52.486;13.424;2022-09-09T15:48:52;21.90;99.90
8676;DHT22;4375;52.486;13.424;2022-09-09T15:51:18;21.80;99.90
8676;DHT22;4375;52.486;13.424;2022-09-09T15:53:44;21.80;99.90
8676;DHT22;4375;52.486;13.424;2022-09-09T15:56:10;21.70;99.90
8676;DHT22;4375;52.486;13.424;2022-09-09T15:58:36;21.70;99.90
8676;DHT22;4375;52.486;13.424;2022-09-09T16:01:03;21.70;99.90
8676;DHT22;4375;52.486;13.424;2022-09-09T16:03:39;21.60;99.90
8676;DHT22;4375;52.486;13.424;2022-09-09T16:06:09;21.60;99.90
8676;DHT22;4375;52.486;13.424;2022-09-09T16:08:39;21.70;99.90
8676;DHT22;4375;52.486;13.424;2022-09-09T16:11:16;21.80;99.90
8676;DHT22;4375;52.486;13.424;2022-09-09T16:13:43;21.90;99.90
8676;DHT22;4375;52.486;13.424;2022-09-09T16:16:13;21.90;99.90
8676;DHT22;4375;52.486;13.424;2022-09-09T16:18:47;21.90;99.90
8676;DHT22;4375;52.486;13.424;2022-09-09T16:21:16;21.90;99.90
8676;DHT22;4375;52.486;13.424;2022-09-09T16:23:42;21.90;99.90
8676;DHT22;4375;52.486;13.424;2022-09-09T16:26:11;21.90;99.90
8676;DHT22;4375;52.486;13.424;2022-09-09T16:28:37;21.80;99.90
8676;DHT22;4375;52.486;13.424;2022-09-09T16:31:11;21.80;99.90
8676;DHT22;4375;52.486;13.424;2022-09-09T16:33:39;21.80;99.90
8676;DHT22;4375;52.486;13.424;2022-09-09T16:36:07;21.70;99.90
8676;DHT22;4375;52.486;13.424;2022-09-09T16:38:33;21.70;99.90
8676;DHT22;4375;52.486;13.424;2022-09-09T16:41:01;21.70;99.90
8676;DHT22;4375;52.486;13.424;2022-09-09T16:43:27;21.60;99.90
8676;DHT22;4375;52.486;13.424;2022-09-09T16:45:53;21.60;99.90
8676;DHT22;4375;52.486;13.424;2022-09-09T16:48:19;21.50;99.90
8676;DHT22;4375;52.486;13.424;2022-09-09T16:50:45;21.50;99.90
8676;DHT22;4375;52.486;13.424;2022-09-09T16:53:11;21.50;99.90
8676;DHT22;4375;52.486;13.424;2022-09-09T16:55:39;21.40;99.90
8676;DHT22;4375;52.486;13.424;2022-09-09T16:58:06;21.40;99.90
8676;DHT22;4375;52.486;13.424;2022-09-09T17:00:32;21.30;99.90
8676;DHT22;4375;52.486;13.424;2022-09-09T17:02:57;21.20;99.90
8676;DHT22;4375;52.486;13.424;2022-09-09T17:05:24;21.20;99.90
8676;DHT22;4375;52.486;13.424;2022-09-09T17:07:50;21.10;99.90
8676;DHT22;4375;52.486;13.424;2022-09-09T17:10:16;21.10;99.90
8676;DHT22;4375;52.486;13.424;2022-09-09T17:12:42;21.00;99.90
8676;DHT22;4375;52.486;13.424;2022-09-09T17:15:08;20.90;99.90
8676;DHT22;4375;52.486;13.424;2022-09-09T17:17:34;20.80;99.90
8676;DHT22;4375;52.486;13.424;2022-09-09T17:20:00;20.70;99.90
8676;DHT22;4375;52.486;13.424;2022-09-09T17:22:27;20.60;99.90
8676;DHT22;4375;52.486;13.424;2022-09-09T17:24:54;20.50;99.90
8676;DHT22;4375;52.486;13.424;2022-09-09T17:27:20;20.40;99.90
8676;DHT22;4375;52.486;13.424;2022-09-09T17:29:45;20.20;99.90
8676;DHT22;4375;52.486;13.424;2022-09-09T17:32:12;20.10;99.90
8676;DHT22;4375;52.486;13.424;2022-09-09T17:34:37;20.00;99.90
8676;DHT22;4375;52.486;13.424;2022-09-09T17:37:04;19.90;99.90
8676;DHT22;4375;52.486;13.424;2022-09-09T17:39:31;19.90;99.90
8676;DHT22;4375;52.486;13.424;2022-09-09T17:41:57;19.90;99.90
8676;DHT22;4375;52.486;13.424;2022-09-09T17:44:23;19.80;99.90
8676;DHT22;4375;52.486;13.424;2022-09-09T17:46:48;19.70;99.90
8676;DHT22;4375;52.486;13.424;2022-09-09T17:49:16;19.60;99.90
8676;DHT22;4375;52.486;13.424;2022-09-09T17:51:46;19.60;99.90
8676;DHT22;4375;52.486;13.424;2022-09-09T17:54:17;19.50;99.90
8676;DHT22;4375;52.486;13.424;2022-09-09T17:56:44;19.40;99.90
8676;DHT22;4375;52.486;13.424;2022-09-09T17:59:12;19.40;99.90
8676;DHT22;4375;52.486;13.424;2022-09-09T18:01:40;19.30;99.90
8676;DHT22;4375;52.486;13.424;2022-09-09T18:04:08;19.20;99.90
8676;DHT22;4375;52.486;13.424;2022-09-09T18:06:36;19.20;99.90
8676;DHT22;4375;52.486;13.424;2022-09-09T18:09:11;19.10;99.90
8676;DHT22;4375;52.486;13.424;2022-09-09T18:11:41;19.00;99.90
8676;DHT22;4375;52.486;13.424;2022-09-09T18:14:10;18.90;99.90
8676;DHT22;4375;52.486;13.424;2022-09-09T18:16:37;18.80;99.90
8676;DHT22;4375;52.486;13.424;2022-09-09T18:19:06;18.80;99.90
8676;DHT22;4375;52.486;13.424;2022-09-09T18:21:34;18.70;99.90
8676;DHT22;4375;52.486;13.424;2022-09-09T18:24:03;18.70;99.90
8676;DHT22;4375;52.486;13.424;2022-09-09T18:26:29;18.60;99.90
8676;DHT22;4375;52.486;13.424;2022-09-09T18:28:57;18.60;99.90
8676;DHT22;4375;52.486;13.424;2022-09-09T18:31:25;18.50;99.90
8676;DHT22;4375;52.486;13.424;2022-09-09T18:33:52;18.50;99.90
8676;DHT22;4375;52.486;13.424;2022-09-09T18:36:23;18.40;99.90
8676;DHT22;4375;52.486;13.424;2022-09-09T18:38:50;18.40;99.90
8676;DHT22;4375;52.486;13.424;2022-09-09T18:41:18;18.30;99.90
8676;DHT22;4375;52.486;13.424;2022-09-09T18:43:46;18.20;99.90
8676;DHT22;4375;52.486;13.424;2022-09-09T18:46:13;18.20;99.90
8676;DHT22;4375;52.486;13.424;2022-09-09T18:48:41;18.10;99.90
8676;DHT22;4375;52.486;13.424;2022-09-09T18:51:08;18.00;99.90
8676;DHT22;4375;52.486;13.424;2022-09-09T18:53:36;17.90;99.90